sensor_id;sensor_type;location;lat;lon;timestamp;P1;durP1;ratioP1;P2;durP2;ratioP2
41059;SDS011;26811;53.160;8.202;2023-06-04T00:04:34;12.90;;;4.97;;
41059;SDS011;26811;53.160;8.202;2023-06-04T00:09:35;10.85;;;4.05;;
41059;SDS011;26811;53.160;8.202;2023-06-04T00:14:35;11.38;;;4.15;;
41059;SDS011;26811;53.160;8.202;2023-06-04T00:19:38;13.02;;;4.00;;
41059;SDS011;26811;53.160;8.202;2023-06-04T00:24:39;10.07;;;4.13;;
41059;SDS011;26811;53.160;8.202;2023-06-04T00:29:40;13.80;;;4.50;;
41059;SDS011;26811;53.160;8.202;2023-06-04T00:34:40;13.00;;;4.10;;
41059;SDS011;26811;53.160;8.202;2023-06-04T00:39:41;9.27;;;4.40;;
41059;SDS011;26811;53.160;8.202;2023-06-04T00:44:41;18.88;;;4.35;;
41059;SDS011;26811;53.160;8.202;2023-06-04T00:49:44;15.57;;;4.65;;
41059;SDS011;26811;53.160;8.202;2023-06-04T00:54:45;14.02;;;5.20;;
41059;SDS011;26811;53.160;8.202;2023-06-04T00:59:45;11.18;;;4.50;;
41059;SDS011;26811;53.160;8.202;2023-06-04T01:09:58;12.53;;;4.90;;
41059;SDS011;26811;53.160;8.202;2023-06-04T01:14:59;12.70;;;4.57;;
41059;SDS011;26811;53.160;8.202;2023-06-04T01:25:24;14.98;;;4.78;;
41059;SDS011;26811;53.160;8.202;2023-06-04T01:30:32;13.40;;;4.72;;
41059;SDS011;26811;53.160;8.202;2023-06-04T01:35:34;16.80;;;4.80;;
41059;SDS011;26811;53.160;8.202;2023-06-04T01:40:34;18.27;;;5.03;;
41059;SDS011;26811;53.160;8.202;2023-06-04T01:45:35;13.88;;;5.55;;
41059;SDS011;26811;53.160;8.202;2023-06-04T01:50:35;19.65;;;6.05;;
41059;SDS011;26811;53.160;8.202;2023-06-04T01:55:36;14.10;;;5.38;;
41059;SDS011;26811;53.160;8.202;2023-06-04T02:00:37;13.55;;;5.55;;
41059;SDS011;26811;53.160;8.202;2023-06-04T02:05:38;15.95;;;5.85;;
41059;SDS011;26811;53.160;8.202;2023-06-04T02:10:38;15.48;;;6.20;;
41059;SDS011;26811;53.160;8.202;2023-06-04T02:15:39;16.42;;;6.15;;
41059;SDS011;26811;53.160;8.202;2023-06-04T02:20:39;18.70;;;5.68;;
41059;SDS011;26811;53.160;8.202;2023-06-04T02:25:40;15.23;;;6.07;;
41059;SDS011;26811;53.160;8.202;2023-06-04T02:30:40;13.23;;;6.18;;
41059;SDS011;26811;53.160;8.202;2023-06-04T02:35:42;19.35;;;6.53;;
41059;SDS011;26811;53.160;8.202;2023-06-04T02:40:42;13.65;;;6.55;;
41059;SDS011;26811;53.160;8.202;2023-06-04T02:45:44;17.38;;;6.45;;
41059;SDS011;26811;53.160;8.202;2023-06-04T02:50:44;13.18;;;6.15;;
41059;SDS011;26811;53.160;8.202;2023-06-04T02:55:45;12.23;;;5.47;;
41059;SDS011;26811;53.160;8.202;2023-06-04T03:00:45;15.90;;;6.35;;
41059;SDS011;26811;53.160;8.202;2023-06-04T03:05:46;15.45;;;6.70;;
41059;SDS011;26811;53.160;8.202;2023-06-04T03:10:46;18.35;;;6.80;;
41059;SDS011;26811;53.160;8.202;2023-06-04T03:15:47;13.02;;;5.88;;
41059;SDS011;26811;53.160;8.202;2023-06-04T03:20:49;16.25;;;6.43;;
41059;SDS011;26811;53.160;8.202;2023-06-04T03:25:49;13.45;;;6.15;;
41059;SDS011;26811;53.160;8.202;2023-06-04T03:30:50;14.45;;;6.55;;
41059;SDS011;26811;53.160;8.202;2023-06-04T03:35:51;15.13;;;7.03;;
41059;SDS011;26811;53.160;8.202;2023-06-04T03:40:58;11.20;;;6.45;;
41059;SDS011;26811;53.160;8.202;2023-06-04T03:45:59;15.57;;;6.22;;
41059;SDS011;26811;53.160;8.202;2023-06-04T03:50:59;18.35;;;7.00;;
41059;SDS011;26811;53.160;8.202;2023-06-04T03:56:00;17.70;;;7.07;;
41059;SDS011;26811;53.160;8.202;2023-06-04T04:01:01;21.55;;;7.15;;
41059;SDS011;26811;53.160;8.202;2023-06-04T04:06:04;18.48;;;7.20;;
41059;SDS011;26811;53.160;8.202;2023-06-04T04:11:14;15.50;;;6.72;;
41059;SDS011;26811;53.160;8.202;2023-06-04T04:16:16;21.00;;;6.60;;
41059;SDS011;26811;53.160;8.202;2023-06-04T04:21:16;19.00;;;6.30;;
41059;SDS011;26811;53.160;8.202;2023-06-04T04:26:17;15.23;;;5.60;;
41059;SDS011;26811;53.160;8.202;2023-06-04T04:31:17;15.27;;;5.18;;
41059;SDS011;26811;53.160;8.202;2023-06-04T04:36:18;17.02;;;4.90;;
41059;SDS011;26811;53.160;8.202;2023-06-04T04:41:18;12.85;;;4.45;;
41059;SDS011;26811;53.160;8.202;2023-06-04T04:46:20;9.83;;;4.37;;
41059;SDS011;26811;53.160;8.202;2023-06-04T04:51:21;11.77;;;4.65;;
41059;SDS011;26811;53.160;8.202;2023-06-04T04:56:22;18.40;;;5.45;;
41059;SDS011;26811;53.160;8.202;2023-06-04T05:01:22;10.90;;;4.28;;
41059;SDS011;26811;53.160;8.202;2023-06-04T05:06:24;12.80;;;4.40;;
41059;SDS011;26811;53.160;8.202;2023-06-04T05:11:25;14.57;;;4.25;;
41059;SDS011;26811;53.160;8.202;2023-06-04T05:16:25;14.20;;;3.95;;
41059;SDS011;26811;53.160;8.202;2023-06-04T05:21:27;15.57;;;3.87;;
41059;SDS011;26811;53.160;8.202;2023-06-04T05:26:31;10.50;;;4.03;;
41059;SDS011;26811;53.160;8.202;2023-06-04T05:31:33;15.53;;;3.93;;
41059;SDS011;26811;53.160;8.202;2023-06-04T05:36:34;12.38;;;3.35;;
41059;SDS011;26811;53.160;8.202;2023-06-04T05:41:35;12.10;;;3.35;;
41059;SDS011;26811;53.160;8.202;2023-06-04T05:46:36;13.25;;;2.78;;
41059;SDS011;26811;53.160;8.202;2023-06-04T05:51:37;8.30;;;2.50;;
41059;SDS011;26811;53.160;8.202;2023-06-04T05:56:37;9.15;;;2.78;;
41059;SDS011;26811;53.160;8.202;2023-06-04T06:01:38;9.20;;;3.10;;
41059;SDS011;26811;53.160;8.202;2023-06-04T06:06:38;10.20;;;3.20;;
41059;SDS011;26811;53.160;8.202;2023-06-04T06:11:39;10.88;;;3.13;;
41059;SDS011;26811;53.160;8.202;2023-06-04T06:16:40;12.15;;;3.55;;
41059;SDS011;26811;53.160;8.202;2023-06-04T06:21:40;15.20;;;3.05;;
41059;SDS011;26811;53.160;8.202;2023-06-04T06:26:41;10.38;;;3.25;;
41059;SDS011;26811;53.160;8.202;2023-06-04T06:31:42;9.35;;;3.00;;
41059;SDS011;26811;53.160;8.202;2023-06-04T06:36:43;7.38;;;2.97;;
41059;SDS011;26811;53.160;8.202;2023-06-04T06:41:44;12.68;;;2.70;;
41059;SDS011;26811;53.160;8.202;2023-06-04T06:46:45;7.13;;;2.88;;
41059;SDS011;26811;53.160;8.202;2023-06-04T06:56:49;8.15;;;3.05;;
41059;SDS011;26811;53.160;8.202;2023-06-04T07:01:50;6.05;;;2.72;;
41059;SDS011;26811;53.160;8.202;2023-06-04T07:06:51;13.23;;;2.88;;
41059;SDS011;26811;53.160;8.202;2023-06-04T07:11:51;7.88;;;3.08;;
41059;SDS011;26811;53.160;8.202;2023-06-04T07:16:52;6.72;;;2.72;;
41059;SDS011;26811;53.160;8.202;2023-06-04T07:21:53;8.68;;;2.90;;
41059;SDS011;26811;53.160;8.202;2023-06-04T07:26:55;8.73;;;2.72;;
41059;SDS011;26811;53.160;8.202;2023-06-04T07:31:56;9.75;;;2.35;;
41059;SDS011;26811;53.160;8.202;2023-06-04T07:36:57;10.40;;;2.40;;
41059;SDS011;26811;53.160;8.202;2023-06-04T07:41:57;8.57;;;2.50;;
41059;SDS011;26811;53.160;8.202;2023-06-04T07:46:58;6.07;;;2.47;;
41059;SDS011;26811;53.160;8.202;2023-06-04T07:51:58;5.45;;;2.10;;
41059;SDS011;26811;53.160;8.202;2023-06-04T07:57:00;9.20;;;2.83;;
41059;SDS011;26811;53.160;8.202;2023-06-04T08:02:00;7.95;;;2.78;;
41059;SDS011;26811;53.160;8.202;2023-06-04T08:07:01;9.25;;;2.65;;
41059;SDS011;26811;53.160;8.202;2023-06-04T08:12:02;10.52;;;2.90;;
41059;SDS011;26811;53.160;8.202;2023-06-04T08:17:02;8.32;;;2.78;;
41059;SDS011;26811;53.160;8.202;2023-06-04T08:22:03;14.15;;;3.38;;
41059;SDS011;26811;53.160;8.202;2023-06-04T08:27:04;6.47;;;2.30;;
41059;SDS011;26811;53.160;8.202;2023-06-04T08:32:08;6.95;;;2.90;;
41059;SDS011;26811;53.160;8.202;2023-06-04T08:37:08;17.90;;;6.40;;
41059;SDS011;26811;53.160;8.202;2023-06-04T08:42:10;10.30;;;2.78;;
41059;SDS011;26811;53.160;8.202;2023-06-04T08:47:19;8.57;;;2.65;;
41059;SDS011;26811;53.160;8.202;2023-06-04T08:52:22;6.90;;;2.67;;
41059;SDS011;26811;53.160;8.202;2023-06-04T08:57:24;7.07;;;2.35;;
41059;SDS011;26811;53.160;8.202;2023-06-04T09:02:25;5.60;;;2.45;;
41059;SDS011;26811;53.160;8.202;2023-06-04T09:07:27;23.40;;;8.70;;
41059;SDS011;26811;53.160;8.202;2023-06-04T09:12:29;11.38;;;3.63;;
41059;SDS011;26811;53.160;8.202;2023-06-04T09:17:30;11.40;;;3.03;;
41059;SDS011;26811;53.160;8.202;2023-06-04T09:22:31;13.47;;;5.60;;
41059;SDS011;26811;53.160;8.202;2023-06-04T09:32:40;5.85;;;2.20;;
41059;SDS011;26811;53.160;8.202;2023-06-04T09:37:40;7.05;;;2.22;;
41059;SDS011;26811;53.160;8.202;2023-06-04T09:42:42;5.47;;;2.00;;
41059;SDS011;26811;53.160;8.202;2023-06-04T09:52:44;6.30;;;2.17;;
41059;SDS011;26811;53.160;8.202;2023-06-04T09:57:49;9.20;;;2.53;;
41059;SDS011;26811;53.160;8.202;2023-06-04T10:03:01;8.13;;;2.83;;
41059;SDS011;26811;53.160;8.202;2023-06-04T10:08:03;7.45;;;2.28;;
41059;SDS011;26811;53.160;8.202;2023-06-04T10:13:09;9.75;;;2.67;;
41059;SDS011;26811;53.160;8.202;2023-06-04T10:18:17;4.72;;;2.00;;
41059;SDS011;26811;53.160;8.202;2023-06-04T10:23:18;10.07;;;2.40;;
41059;SDS011;26811;53.160;8.202;2023-06-04T10:28:22;12.15;;;2.58;;
41059;SDS011;26811;53.160;8.202;2023-06-04T10:33:23;11.32;;;2.85;;
41059;SDS011;26811;53.160;8.202;2023-06-04T10:38:24;7.63;;;2.22;;
41059;SDS011;26811;53.160;8.202;2023-06-04T10:43:29;7.55;;;2.53;;
41059;SDS011;26811;53.160;8.202;2023-06-04T10:48:31;6.53;;;2.28;;
41059;SDS011;26811;53.160;8.202;2023-06-04T10:53:36;12.25;;;2.70;;
41059;SDS011;26811;53.160;8.202;2023-06-04T10:58:37;4.45;;;2.47;;
41059;SDS011;26811;53.160;8.202;2023-06-04T11:03:37;12.70;;;2.20;;
41059;SDS011;26811;53.160;8.202;2023-06-04T11:08:38;5.05;;;2.33;;
41059;SDS011;26811;53.160;8.202;2023-06-04T11:13:40;3.95;;;1.70;;
41059;SDS011;26811;53.160;8.202;2023-06-04T11:18:42;9.23;;;2.58;;
41059;SDS011;26811;53.160;8.202;2023-06-04T11:23:42;7.05;;;2.33;;
41059;SDS011;26811;53.160;8.202;2023-06-04T11:28:43;7.10;;;2.47;;
41059;SDS011;26811;53.160;8.202;2023-06-04T11:38:53;6.40;;;2.42;;
41059;SDS011;26811;53.160;8.202;2023-06-04T11:44:06;10.68;;;2.83;;
41059;SDS011;26811;53.160;8.202;2023-06-04T11:49:15;7.87;;;2.53;;
41059;SDS011;26811;53.160;8.202;2023-06-04T11:54:17;9.68;;;2.20;;
41059;SDS011;26811;53.160;8.202;2023-06-04T11:59:19;8.77;;;2.45;;
41059;SDS011;26811;53.160;8.202;2023-06-04T12:04:20;8.30;;;2.50;;
41059;SDS011;26811;53.160;8.202;2023-06-04T12:09:21;6.75;;;2.20;;
41059;SDS011;26811;53.160;8.202;2023-06-04T12:14:23;7.05;;;2.25;;
41059;SDS011;26811;53.160;8.202;2023-06-04T12:19:23;9.23;;;2.08;;
41059;SDS011;26811;53.160;8.202;2023-06-04T12:24:26;6.80;;;2.00;;
41059;SDS011;26811;53.160;8.202;2023-06-04T12:29:26;6.30;;;2.38;;
41059;SDS011;26811;53.160;8.202;2023-06-04T12:34:27;3.78;;;2.00;;
41059;SDS011;26811;53.160;8.202;2023-06-04T12:39:27;4.88;;;1.67;;
41059;SDS011;26811;53.160;8.202;2023-06-04T12:44:28;9.57;;;2.58;;
41059;SDS011;26811;53.160;8.202;2023-06-04T12:49:29;7.60;;;2.47;;
41059;SDS011;26811;53.160;8.202;2023-06-04T12:54:30;9.15;;;2.55;;
41059;SDS011;26811;53.160;8.202;2023-06-04T12:59:34;5.13;;;2.10;;
41059;SDS011;26811;53.160;8.202;2023-06-04T13:04:34;6.65;;;2.13;;
41059;SDS011;26811;53.160;8.202;2023-06-04T13:09:36;3.63;;;1.65;;
41059;SDS011;26811;53.160;8.202;2023-06-04T13:14:36;4.57;;;2.05;;
41059;SDS011;26811;53.160;8.202;2023-06-04T13:19:37;3.38;;;1.80;;
41059;SDS011;26811;53.160;8.202;2023-06-04T13:24:37;6.55;;;1.85;;
41059;SDS011;26811;53.160;8.202;2023-06-04T13:29:38;6.47;;;1.92;;
41059;SDS011;26811;53.160;8.202;2023-06-04T13:34:38;3.67;;;2.10;;
41059;SDS011;26811;53.160;8.202;2023-06-04T13:39:39;3.40;;;1.80;;
41059;SDS011;26811;53.160;8.202;2023-06-04T13:44:40;4.63;;;1.80;;
41059;SDS011;26811;53.160;8.202;2023-06-04T13:49:40;6.07;;;1.95;;
41059;SDS011;26811;53.160;8.202;2023-06-04T13:54:41;4.53;;;2.10;;
41059;SDS011;26811;53.160;8.202;2023-06-04T13:59:41;5.07;;;2.13;;
41059;SDS011;26811;53.160;8.202;2023-06-04T14:04:42;3.63;;;1.90;;
41059;SDS011;26811;53.160;8.202;2023-06-04T14:09:42;5.68;;;1.98;;
41059;SDS011;26811;53.160;8.202;2023-06-04T14:14:43;4.22;;;1.92;;
41059;SDS011;26811;53.160;8.202;2023-06-04T14:19:44;5.57;;;2.05;;
41059;SDS011;26811;53.160;8.202;2023-06-04T14:24:44;4.43;;;2.15;;
41059;SDS011;26811;53.160;8.202;2023-06-04T14:29:45;5.88;;;2.28;;
41059;SDS011;26811;53.160;8.202;2023-06-04T14:34:45;7.88;;;2.15;;
41059;SDS011;26811;53.160;8.202;2023-06-04T14:39:47;8.75;;;2.38;;
41059;SDS011;26811;53.160;8.202;2023-06-04T14:44:56;5.45;;;2.30;;
41059;SDS011;26811;53.160;8.202;2023-06-04T14:49:57;6.88;;;2.60;;
41059;SDS011;26811;53.160;8.202;2023-06-04T14:54:57;4.82;;;2.25;;
41059;SDS011;26811;53.160;8.202;2023-06-04T14:59:58;7.28;;;2.40;;
41059;SDS011;26811;53.160;8.202;2023-06-04T15:04:58;7.90;;;2.60;;
41059;SDS011;26811;53.160;8.202;2023-06-04T15:09:59;11.68;;;2.40;;
41059;SDS011;26811;53.160;8.202;2023-06-04T15:15:05;5.53;;;2.60;;
41059;SDS011;26811;53.160;8.202;2023-06-04T15:20:06;6.53;;;3.25;;
41059;SDS011;26811;53.160;8.202;2023-06-04T15:25:07;6.05;;;2.55;;
41059;SDS011;26811;53.160;8.202;2023-06-04T15:30:08;7.10;;;2.85;;
41059;SDS011;26811;53.160;8.202;2023-06-04T15:35:09;8.63;;;2.80;;
41059;SDS011;26811;53.160;8.202;2023-06-04T15:40:10;6.20;;;2.92;;
41059;SDS011;26811;53.160;8.202;2023-06-04T15:45:11;6.35;;;2.45;;
41059;SDS011;26811;53.160;8.202;2023-06-04T15:50:11;9.13;;;3.00;;
41059;SDS011;26811;53.160;8.202;2023-06-04T15:55:12;11.15;;;3.15;;
41059;SDS011;26811;53.160;8.202;2023-06-04T16:00:13;17.67;;;3.30;;
41059;SDS011;26811;53.160;8.202;2023-06-04T16:05:13;7.50;;;2.97;;
41059;SDS011;26811;53.160;8.202;2023-06-04T16:10:14;7.13;;;2.88;;
41059;SDS011;26811;53.160;8.202;2023-06-04T16:15:15;9.80;;;3.15;;
41059;SDS011;26811;53.160;8.202;2023-06-04T16:20:15;11.02;;;3.40;;
41059;SDS011;26811;53.160;8.202;2023-06-04T16:25:16;12.00;;;3.45;;
41059;SDS011;26811;53.160;8.202;2023-06-04T16:30:17;8.98;;;3.55;;
41059;SDS011;26811;53.160;8.202;2023-06-04T16:35:18;10.30;;;3.78;;
41059;SDS011;26811;53.160;8.202;2023-06-04T16:40:18;8.35;;;3.40;;
41059;SDS011;26811;53.160;8.202;2023-06-04T16:45:19;10.98;;;3.30;;
41059;SDS011;26811;53.160;8.202;2023-06-04T16:50:20;9.80;;;3.70;;
41059;SDS011;26811;53.160;8.202;2023-06-04T16:55:28;11.68;;;3.60;;
41059;SDS011;26811;53.160;8.202;2023-06-04T17:00:30;7.63;;;3.90;;
41059;SDS011;26811;53.160;8.202;2023-06-04T17:05:31;12.55;;;3.70;;
41059;SDS011;26811;53.160;8.202;2023-06-04T17:10:31;6.85;;;3.30;;
41059;SDS011;26811;53.160;8.202;2023-06-04T17:15:32;10.82;;;3.40;;
41059;SDS011;26811;53.160;8.202;2023-06-04T17:20:32;8.20;;;4.03;;
41059;SDS011;26811;53.160;8.202;2023-06-04T17:25:33;11.15;;;4.22;;
41059;SDS011;26811;53.160;8.202;2023-06-04T17:30:33;10.80;;;4.32;;
41059;SDS011;26811;53.160;8.202;2023-06-04T17:35:34;12.60;;;4.57;;
41059;SDS011;26811;53.160;8.202;2023-06-04T17:40:35;14.25;;;3.90;;
41059;SDS011;26811;53.160;8.202;2023-06-04T17:45:35;8.65;;;3.83;;
41059;SDS011;26811;53.160;8.202;2023-06-04T17:50:36;6.80;;;4.03;;
41059;SDS011;26811;53.160;8.202;2023-06-04T17:55:36;11.18;;;4.35;;
41059;SDS011;26811;53.160;8.202;2023-06-04T18:00:37;11.18;;;4.78;;
41059;SDS011;26811;53.160;8.202;2023-06-04T18:05:37;11.10;;;4.10;;
41059;SDS011;26811;53.160;8.202;2023-06-04T18:10:38;7.65;;;4.32;;
41059;SDS011;26811;53.160;8.202;2023-06-04T18:15:39;12.68;;;4.82;;
41059;SDS011;26811;53.160;8.202;2023-06-04T18:20:40;7.50;;;4.20;;
41059;SDS011;26811;53.160;8.202;2023-06-04T18:25:40;6.53;;;3.67;;
41059;SDS011;26811;53.160;8.202;2023-06-04T18:30:41;7.05;;;4.43;;
41059;SDS011;26811;53.160;8.202;2023-06-04T18:35:42;10.05;;;4.25;;
41059;SDS011;26811;53.160;8.202;2023-06-04T18:40:42;9.30;;;3.78;;
41059;SDS011;26811;53.160;8.202;2023-06-04T18:45:43;5.50;;;4.07;;
41059;SDS011;26811;53.160;8.202;2023-06-04T18:50:44;8.57;;;4.30;;
41059;SDS011;26811;53.160;8.202;2023-06-04T18:55:45;10.60;;;4.00;;
41059;SDS011;26811;53.160;8.202;2023-06-04T19:00:46;18.92;;;4.55;;
41059;SDS011;26811;53.160;8.202;2023-06-04T19:05:50;7.78;;;4.00;;
41059;SDS011;26811;53.160;8.202;2023-06-04T19:10:52;6.60;;;4.30;;
41059;SDS011;26811;53.160;8.202;2023-06-04T19:15:54;7.63;;;4.10;;
41059;SDS011;26811;53.160;8.202;2023-06-04T19:20:55;8.98;;;4.22;;
41059;SDS011;26811;53.160;8.202;2023-06-04T19:25:55;6.05;;;4.03;;
41059;SDS011;26811;53.160;8.202;2023-06-04T19:30:56;8.88;;;4.07;;
41059;SDS011;26811;53.160;8.202;2023-06-04T19:35:56;8.80;;;4.65;;
41059;SDS011;26811;53.160;8.202;2023-06-04T19:40:57;6.55;;;3.88;;
41059;SDS011;26811;53.160;8.202;2023-06-04T19:45:57;6.07;;;4.10;;
41059;SDS011;26811;53.160;8.202;2023-06-04T19:51:01;10.00;;;4.22;;
41059;SDS011;26811;53.160;8.202;2023-06-04T19:56:02;7.85;;;4.38;;
41059;SDS011;26811;53.160;8.202;2023-06-04T20:01:02;8.70;;;4.40;;
41059;SDS011;26811;53.160;8.202;2023-06-04T20:06:04;13.73;;;4.30;;
41059;SDS011;26811;53.160;8.202;2023-06-04T20:11:05;6.05;;;4.07;;
41059;SDS011;26811;53.160;8.202;2023-06-04T20:16:05;10.15;;;4.13;;
41059;SDS011;26811;53.160;8.202;2023-06-04T20:21:06;10.10;;;3.83;;
41059;SDS011;26811;53.160;8.202;2023-06-04T20:26:07;12.30;;;4.25;;
41059;SDS011;26811;53.160;8.202;2023-06-04T20:31:08;10.20;;;4.35;;
41059;SDS011;26811;53.160;8.202;2023-06-04T20:36:08;8.73;;;4.47;;
41059;SDS011;26811;53.160;8.202;2023-06-04T20:41:09;10.73;;;4.55;;
41059;SDS011;26811;53.160;8.202;2023-06-04T20:46:10;9.30;;;4.32;;
41059;SDS011;26811;53.160;8.202;2023-06-04T20:51:11;11.77;;;4.18;;
41059;SDS011;26811;53.160;8.202;2023-06-04T20:56:12;8.20;;;4.50;;
41059;SDS011;26811;53.160;8.202;2023-06-04T21:01:14;8.93;;;4.30;;
41059;SDS011;26811;53.160;8.202;2023-06-04T21:06:15;6.85;;;4.00;;
41059;SDS011;26811;53.160;8.202;2023-06-04T21:11:15;13.00;;;4.05;;
41059;SDS011;26811;53.160;8.202;2023-06-04T21:16:16;11.15;;;4.07;;
41059;SDS011;26811;53.160;8.202;2023-06-04T21:21:16;9.85;;;4.40;;
41059;SDS011;26811;53.160;8.202;2023-06-04T21:26:20;7.95;;;4.50;;
41059;SDS011;26811;53.160;8.202;2023-06-04T21:31:21;8.38;;;4.60;;
41059;SDS011;26811;53.160;8.202;2023-06-04T21:36:21;14.27;;;4.85;;
41059;SDS011;26811;53.160;8.202;2023-06-04T21:41:22;12.43;;;4.63;;
41059;SDS011;26811;53.160;8.202;2023-06-04T21:46:22;10.43;;;4.93;;
41059;SDS011;26811;53.160;8.202;2023-06-04T21:51:23;6.72;;;4.28;;
41059;SDS011;26811;53.160;8.202;2023-06-04T21:56:24;15.75;;;4.82;;
41059;SDS011;26811;53.160;8.202;2023-06-04T22:01:26;11.30;;;4.68;;
41059;SDS011;26811;53.160;8.202;2023-06-04T22:06:26;15.07;;;4.68;;
41059;SDS011;26811;53.160;8.202;2023-06-04T22:11:27;13.88;;;4.93;;
41059;SDS011;26811;53.160;8.202;2023-06-04T22:16:27;11.27;;;4.80;;
41059;SDS011;26811;53.160;8.202;2023-06-04T22:21:28;11.23;;;5.05;;
41059;SDS011;26811;53.160;8.202;2023-06-04T22:26:28;14.98;;;5.13;;
41059;SDS011;26811;53.160;8.202;2023-06-04T22:31:29;15.75;;;5.43;;
41059;SDS011;26811;53.160;8.202;2023-06-04T22:36:30;12.98;;;5.05;;
41059;SDS011;26811;53.160;8.202;2023-06-04T22:41:30;12.35;;;4.75;;
41059;SDS011;26811;53.160;8.202;2023-06-04T22:46:31;13.80;;;5.53;;
41059;SDS011;26811;53.160;8.202;2023-06-04T22:51:32;18.95;;;5.15;;
41059;SDS011;26811;53.160;8.202;2023-06-04T22:56:32;14.32;;;5.00;;
41059;SDS011;26811;53.160;8.202;2023-06-04T23:01:35;17.33;;;4.97;;
41059;SDS011;26811;53.160;8.202;2023-06-04T23:06:36;14.48;;;5.15;;
41059;SDS011;26811;53.160;8.202;2023-06-04T23:11:37;11.48;;;4.65;;
41059;SDS011;26811;53.160;8.202;2023-06-04T23:16:37;14.77;;;5.03;;
41059;SDS011;26811;53.160;8.202;2023-06-04T23:21:38;13.98;;;4.97;;
41059;SDS011;26811;53.160;8.202;2023-06-04T23:26:38;9.48;;;4.90;;
41059;SDS011;26811;53.160;8.202;2023-06-04T23:31:39;11.82;;;5.13;;
41059;SDS011;26811;53.160;8.202;2023-06-04T23:36:39;14.25;;;5.40;;
41059;SDS011;26811;53.160;8.202;2023-06-04T23:41:40;11.00;;;5.13;;
41059;SDS011;26811;53.160;8.202;2023-06-04T23:46:40;15.57;;;5.47;;
41059;SDS011;26811;53.160;8.202;2023-06-04T23:51:41;11.73;;;5.47;;
41059;SDS011;26811;53.160;8.202;2023-06-04T23:56:41;11.77;;;4.97;;
